sensor_id;sensor_type;location;lat;lon;timestamp;temperature;humidity
4435;DHT22;46552;52.150;8.428;2023-11-19T00:02:01;9.10;99.90
4435;DHT22;46552;52.150;8.428;2023-11-19T00:04:28;9.10;99.90
4435;DHT22;46552;52.150;8.428;2023-11-19T00:06:55;9.10;99.90
4435;DHT22;46552;52.150;8.428;2023-11-19T00:09:28;9.20;99.90
4435;DHT22;46552;52.150;8.428;2023-11-19T00:11:55;9.20;99.90
4435;DHT22;46552;52.150;8.428;2023-11-19T00:14:22;9.20;99.90
4435;DHT22;46552;52.150;8.428;2023-11-19T00:16:51;9.20;99.90
4435;DHT22;46552;52.150;8.428;2023-11-19T00:19:19;9.30;99.90
4435;DHT22;46552;52.150;8.428;2023-11-19T00:21:47;9.30;99.90
4435;DHT22;46552;52.150;8.428;2023-11-19T00:24:14;9.30;99.90
4435;DHT22;46552;52.150;8.428;2023-11-19T00:26:42;9.30;99.90
4435;DHT22;46552;52.150;8.428;2023-11-19T00:29:09;9.30;99.90
4435;DHT22;46552;52.150;8.428;2023-11-19T00:31:36;9.40;99.90
4435;DHT22;46552;52.150;8.428;2023-11-19T00:34:05;9.40;99.90
4435;DHT22;46552;52.150;8.428;2023-11-19T00:36:33;9.40;99.90
4435;DHT22;46552;52.150;8.428;2023-11-19T00:39:00;9.40;99.90
4435;DHT22;46552;52.150;8.428;2023-11-19T00:41:28;9.40;99.90
4435;DHT22;46552;52.150;8.428;2023-11-19T00:43:57;9.50;99.90
4435;DHT22;46552;52.150;8.428;2023-11-19T00:46:24;9.50;99.90
4435;DHT22;46552;52.150;8.428;2023-11-19T00:48:51;9.50;99.90
4435;DHT22;46552;52.150;8.428;2023-11-19T00:51:20;9.50;99.90
4435;DHT22;46552;52.150;8.428;2023-11-19T00:53:47;9.60;99.90
4435;DHT22;46552;52.150;8.428;2023-11-19T00:56:14;9.60;99.90
4435;DHT22;46552;52.150;8.428;2023-11-19T00:58:43;9.60;99.90
4435;DHT22;46552;52.150;8.428;2023-11-19T01:01:11;9.70;99.90
4435;DHT22;46552;52.150;8.428;2023-11-19T01:03:38;9.70;99.90
4435;DHT22;46552;52.150;8.428;2023-11-19T01:06:07;9.70;99.90
4435;DHT22;46552;52.150;8.428;2023-11-19T01:08:36;9.80;99.90
4435;DHT22;46552;52.150;8.428;2023-11-19T01:11:05;9.80;99.90
4435;DHT22;46552;52.150;8.428;2023-11-19T01:13:33;9.80;99.90
4435;DHT22;46552;52.150;8.428;2023-11-19T01:16:01;9.90;99.90
4435;DHT22;46552;52.150;8.428;2023-11-19T01:18:28;9.90;99.90
4435;DHT22;46552;52.150;8.428;2023-11-19T01:20:55;9.90;99.90
4435;DHT22;46552;52.150;8.428;2023-11-19T01:23:23;10.00;99.90
4435;DHT22;46552;52.150;8.428;2023-11-19T01:25:52;10.00;99.90
4435;DHT22;46552;52.150;8.428;2023-11-19T01:28:19;10.00;99.90
4435;DHT22;46552;52.150;8.428;2023-11-19T01:30:50;10.10;99.90
4435;DHT22;46552;52.150;8.428;2023-11-19T01:33:17;10.10;99.90
4435;DHT22;46552;52.150;8.428;2023-11-19T01:35:44;10.10;99.90
4435;DHT22;46552;52.150;8.428;2023-11-19T01:38:11;10.20;99.90
4435;DHT22;46552;52.150;8.428;2023-11-19T01:40:38;10.20;99.90
4435;DHT22;46552;52.150;8.428;2023-11-19T01:43:08;10.20;99.90
4435;DHT22;46552;52.150;8.428;2023-11-19T01:45:37;10.20;99.90
4435;DHT22;46552;52.150;8.428;2023-11-19T01:48:05;10.30;99.90
4435;DHT22;46552;52.150;8.428;2023-11-19T01:50:35;10.30;99.90
4435;DHT22;46552;52.150;8.428;2023-11-19T01:53:04;10.30;99.90
4435;DHT22;46552;52.150;8.428;2023-11-19T01:55:31;10.40;99.90
4435;DHT22;46552;52.150;8.428;2023-11-19T01:58:00;10.40;99.90
4435;DHT22;46552;52.150;8.428;2023-11-19T02:00:31;10.40;99.90
4435;DHT22;46552;52.150;8.428;2023-11-19T02:03:00;10.50;99.90
4435;DHT22;46552;52.150;8.428;2023-11-19T02:05:29;10.50;99.90
4435;DHT22;46552;52.150;8.428;2023-11-19T02:07:58;10.50;99.90
4435;DHT22;46552;52.150;8.428;2023-11-19T02:10:25;10.60;99.90
4435;DHT22;46552;52.150;8.428;2023-11-19T02:12:56;10.60;99.90
4435;DHT22;46552;52.150;8.428;2023-11-19T02:15:23;10.60;99.90
4435;DHT22;46552;52.150;8.428;2023-11-19T02:17:52;10.60;99.90
4435;DHT22;46552;52.150;8.428;2023-11-19T02:20:19;10.70;99.90
4435;DHT22;46552;52.150;8.428;2023-11-19T02:22:47;10.70;99.90
4435;DHT22;46552;52.150;8.428;2023-11-19T02:25:21;10.70;99.90
4435;DHT22;46552;52.150;8.428;2023-11-19T02:27:57;10.80;99.90
4435;DHT22;46552;52.150;8.428;2023-11-19T02:30:25;10.80;99.90
4435;DHT22;46552;52.150;8.428;2023-11-19T02:32:54;10.80;99.90
4435;DHT22;46552;52.150;8.428;2023-11-19T02:35:23;10.80;99.90
4435;DHT22;46552;52.150;8.428;2023-11-19T02:37:50;10.90;99.90
4435;DHT22;46552;52.150;8.428;2023-11-19T02:40:18;10.90;99.90
4435;DHT22;46552;52.150;8.428;2023-11-19T02:42:45;10.90;99.90
4435;DHT22;46552;52.150;8.428;2023-11-19T02:45:14;10.90;99.90
4435;DHT22;46552;52.150;8.428;2023-11-19T02:47:41;11.00;99.90
4435;DHT22;46552;52.150;8.428;2023-11-19T02:50:09;11.00;99.90
4435;DHT22;46552;52.150;8.428;2023-11-19T02:52:40;11.00;99.90
4435;DHT22;46552;52.150;8.428;2023-11-19T02:55:08;11.00;99.90
4435;DHT22;46552;52.150;8.428;2023-11-19T02:57:38;11.00;99.90
4435;DHT22;46552;52.150;8.428;2023-11-19T03:00:14;11.10;99.90
4435;DHT22;46552;52.150;8.428;2023-11-19T03:02:41;11.10;99.90
4435;DHT22;46552;52.150;8.428;2023-11-19T03:05:12;11.10;99.90
4435;DHT22;46552;52.150;8.428;2023-11-19T03:07:41;11.20;99.90
4435;DHT22;46552;52.150;8.428;2023-11-19T03:10:09;11.20;99.90
4435;DHT22;46552;52.150;8.428;2023-11-19T03:12:39;11.20;99.90
4435;DHT22;46552;52.150;8.428;2023-11-19T03:15:08;11.20;99.90
4435;DHT22;46552;52.150;8.428;2023-11-19T03:17:38;11.20;99.90
4435;DHT22;46552;52.150;8.428;2023-11-19T03:20:07;11.30;99.90
4435;DHT22;46552;52.150;8.428;2023-11-19T03:22:37;11.30;99.90
4435;DHT22;46552;52.150;8.428;2023-11-19T03:25:04;11.30;99.90
4435;DHT22;46552;52.150;8.428;2023-11-19T03:27:34;11.30;99.90
4435;DHT22;46552;52.150;8.428;2023-11-19T03:30:02;11.40;99.90
4435;DHT22;46552;52.150;8.428;2023-11-19T03:32:31;11.40;99.90
4435;DHT22;46552;52.150;8.428;2023-11-19T03:35:00;11.40;99.90
4435;DHT22;46552;52.150;8.428;2023-11-19T03:37:27;11.50;99.90
4435;DHT22;46552;52.150;8.428;2023-11-19T03:39:54;11.50;99.90
4435;DHT22;46552;52.150;8.428;2023-11-19T03:42:25;11.50;99.90
4435;DHT22;46552;52.150;8.428;2023-11-19T03:44:52;11.60;99.90
4435;DHT22;46552;52.150;8.428;2023-11-19T03:47:19;11.60;99.90
4435;DHT22;46552;52.150;8.428;2023-11-19T03:49:48;11.60;99.90
4435;DHT22;46552;52.150;8.428;2023-11-19T03:52:17;11.60;99.90
4435;DHT22;46552;52.150;8.428;2023-11-19T03:54:45;11.70;99.90
4435;DHT22;46552;52.150;8.428;2023-11-19T03:57:12;11.70;99.90
4435;DHT22;46552;52.150;8.428;2023-11-19T03:59:41;11.70;99.90
4435;DHT22;46552;52.150;8.428;2023-11-19T04:02:08;11.70;99.90
4435;DHT22;46552;52.150;8.428;2023-11-19T04:04:36;11.70;99.90
4435;DHT22;46552;52.150;8.428;2023-11-19T04:07:05;11.80;99.90
4435;DHT22;46552;52.150;8.428;2023-11-19T04:09:33;11.80;99.90
4435;DHT22;46552;52.150;8.428;2023-11-19T04:12:01;11.80;99.90
4435;DHT22;46552;52.150;8.428;2023-11-19T04:14:28;11.80;99.90
4435;DHT22;46552;52.150;8.428;2023-11-19T04:16:56;11.80;99.90
4435;DHT22;46552;52.150;8.428;2023-11-19T04:19:23;11.80;99.90
4435;DHT22;46552;52.150;8.428;2023-11-19T04:21:51;11.80;99.90
4435;DHT22;46552;52.150;8.428;2023-11-19T04:24:19;11.80;99.90
4435;DHT22;46552;52.150;8.428;2023-11-19T04:26:48;11.80;99.90
4435;DHT22;46552;52.150;8.428;2023-11-19T04:29:16;11.80;99.90
4435;DHT22;46552;52.150;8.428;2023-11-19T04:31:45;11.80;99.90
4435;DHT22;46552;52.150;8.428;2023-11-19T04:34:12;11.90;99.90
4435;DHT22;46552;52.150;8.428;2023-11-19T04:36:39;11.90;99.90
4435;DHT22;46552;52.150;8.428;2023-11-19T04:39:06;11.90;99.90
4435;DHT22;46552;52.150;8.428;2023-11-19T04:41:45;11.90;99.90
4435;DHT22;46552;52.150;8.428;2023-11-19T04:44:14;11.90;99.90
4435;DHT22;46552;52.150;8.428;2023-11-19T04:46:41;11.90;99.90
4435;DHT22;46552;52.150;8.428;2023-11-19T04:49:09;11.90;99.90
4435;DHT22;46552;52.150;8.428;2023-11-19T04:51:41;12.00;99.90
4435;DHT22;46552;52.150;8.428;2023-11-19T04:54:08;12.00;99.90
4435;DHT22;46552;52.150;8.428;2023-11-19T04:56:36;12.00;99.90
4435;DHT22;46552;52.150;8.428;2023-11-19T04:59:04;12.00;99.90
4435;DHT22;46552;52.150;8.428;2023-11-19T05:01:33;12.00;99.90
4435;DHT22;46552;52.150;8.428;2023-11-19T05:04:01;12.00;99.90
4435;DHT22;46552;52.150;8.428;2023-11-19T05:06:29;12.00;99.90
4435;DHT22;46552;52.150;8.428;2023-11-19T05:08:56;12.00;99.90
4435;DHT22;46552;52.150;8.428;2023-11-19T05:11:23;12.00;99.90
4435;DHT22;46552;52.150;8.428;2023-11-19T05:13:51;12.00;99.90
4435;DHT22;46552;52.150;8.428;2023-11-19T05:16:18;12.00;99.90
4435;DHT22;46552;52.150;8.428;2023-11-19T05:18:48;12.00;99.90
4435;DHT22;46552;52.150;8.428;2023-11-19T05:21:15;12.00;99.90
4435;DHT22;46552;52.150;8.428;2023-11-19T05:23:43;12.00;99.90
4435;DHT22;46552;52.150;8.428;2023-11-19T05:26:17;12.00;99.90
4435;DHT22;46552;52.150;8.428;2023-11-19T05:28:44;12.00;99.90
4435;DHT22;46552;52.150;8.428;2023-11-19T05:31:12;12.00;99.90
4435;DHT22;46552;52.150;8.428;2023-11-19T05:33:39;12.00;99.90
4435;DHT22;46552;52.150;8.428;2023-11-19T05:36:08;12.00;99.90
4435;DHT22;46552;52.150;8.428;2023-11-19T05:38:36;12.00;99.90
4435;DHT22;46552;52.150;8.428;2023-11-19T05:41:04;12.00;99.90
4435;DHT22;46552;52.150;8.428;2023-11-19T05:43:31;12.00;99.90
4435;DHT22;46552;52.150;8.428;2023-11-19T05:45:59;12.00;99.90
4435;DHT22;46552;52.150;8.428;2023-11-19T05:48:27;11.90;99.90
4435;DHT22;46552;52.150;8.428;2023-11-19T05:50:54;11.90;99.90
4435;DHT22;46552;52.150;8.428;2023-11-19T05:53:23;11.90;99.90
4435;DHT22;46552;52.150;8.428;2023-11-19T05:55:50;11.90;99.90
4435;DHT22;46552;52.150;8.428;2023-11-19T05:58:23;11.90;99.90
4435;DHT22;46552;52.150;8.428;2023-11-19T06:00:54;11.80;99.90
4435;DHT22;46552;52.150;8.428;2023-11-19T06:03:22;11.80;99.90
4435;DHT22;46552;52.150;8.428;2023-11-19T06:05:50;11.80;99.90
4435;DHT22;46552;52.150;8.428;2023-11-19T06:08:18;11.80;99.90
4435;DHT22;46552;52.150;8.428;2023-11-19T06:10:48;11.80;99.90
4435;DHT22;46552;52.150;8.428;2023-11-19T06:13:17;11.80;99.90
4435;DHT22;46552;52.150;8.428;2023-11-19T06:15:45;11.70;99.90
4435;DHT22;46552;52.150;8.428;2023-11-19T06:18:12;11.70;99.90
4435;DHT22;46552;52.150;8.428;2023-11-19T06:20:41;11.70;99.90
4435;DHT22;46552;52.150;8.428;2023-11-19T06:23:09;11.70;99.90
4435;DHT22;46552;52.150;8.428;2023-11-19T06:25:36;11.70;99.90
4435;DHT22;46552;52.150;8.428;2023-11-19T06:28:05;11.70;99.90
4435;DHT22;46552;52.150;8.428;2023-11-19T06:30:32;11.70;99.90
4435;DHT22;46552;52.150;8.428;2023-11-19T06:32:59;11.60;99.90
4435;DHT22;46552;52.150;8.428;2023-11-19T06:35:27;11.70;99.90
4435;DHT22;46552;52.150;8.428;2023-11-19T06:37:55;11.70;99.90
4435;DHT22;46552;52.150;8.428;2023-11-19T06:40:22;11.70;99.90
4435;DHT22;46552;52.150;8.428;2023-11-19T06:42:50;11.70;99.90
4435;DHT22;46552;52.150;8.428;2023-11-19T06:45:19;11.60;99.90
4435;DHT22;46552;52.150;8.428;2023-11-19T06:47:47;11.70;99.90
4435;DHT22;46552;52.150;8.428;2023-11-19T06:50:14;11.70;99.90
4435;DHT22;46552;52.150;8.428;2023-11-19T06:52:41;11.60;99.90
4435;DHT22;46552;52.150;8.428;2023-11-19T06:55:10;11.60;99.90
4435;DHT22;46552;52.150;8.428;2023-11-19T06:57:37;11.70;99.90
4435;DHT22;46552;52.150;8.428;2023-11-19T07:00:05;11.60;99.90
4435;DHT22;46552;52.150;8.428;2023-11-19T07:02:35;11.60;99.90
4435;DHT22;46552;52.150;8.428;2023-11-19T07:05:03;11.60;99.90
4435;DHT22;46552;52.150;8.428;2023-11-19T07:07:31;11.60;99.90
4435;DHT22;46552;52.150;8.428;2023-11-19T07:09:58;11.60;99.90
4435;DHT22;46552;52.150;8.428;2023-11-19T07:12:26;11.60;99.90
4435;DHT22;46552;52.150;8.428;2023-11-19T07:14:53;11.60;99.90
4435;DHT22;46552;52.150;8.428;2023-11-19T07:17:20;11.60;99.90
4435;DHT22;46552;52.150;8.428;2023-11-19T07:19:51;11.70;99.90
4435;DHT22;46552;52.150;8.428;2023-11-19T07:22:18;11.60;99.90
4435;DHT22;46552;52.150;8.428;2023-11-19T07:24:46;11.70;99.90
4435;DHT22;46552;52.150;8.428;2023-11-19T07:27:14;11.60;99.90
4435;DHT22;46552;52.150;8.428;2023-11-19T07:29:43;11.70;99.90
4435;DHT22;46552;52.150;8.428;2023-11-19T07:32:10;11.70;99.90
4435;DHT22;46552;52.150;8.428;2023-11-19T07:34:39;11.70;99.90
4435;DHT22;46552;52.150;8.428;2023-11-19T07:37:07;11.70;99.90
4435;DHT22;46552;52.150;8.428;2023-11-19T07:39:35;11.70;99.90
4435;DHT22;46552;52.150;8.428;2023-11-19T07:42:04;11.60;99.90
4435;DHT22;46552;52.150;8.428;2023-11-19T07:44:31;11.60;99.90
4435;DHT22;46552;52.150;8.428;2023-11-19T07:46:58;11.70;99.90
4435;DHT22;46552;52.150;8.428;2023-11-19T07:49:25;11.60;99.90
4435;DHT22;46552;52.150;8.428;2023-11-19T07:51:52;11.70;99.90
4435;DHT22;46552;52.150;8.428;2023-11-19T07:54:20;11.70;99.90
4435;DHT22;46552;52.150;8.428;2023-11-19T07:56:48;11.70;99.90
4435;DHT22;46552;52.150;8.428;2023-11-19T07:59:16;11.70;99.90
4435;DHT22;46552;52.150;8.428;2023-11-19T08:01:43;11.70;99.90
4435;DHT22;46552;52.150;8.428;2023-11-19T08:04:10;11.70;99.90
4435;DHT22;46552;52.150;8.428;2023-11-19T08:06:37;11.70;99.90
4435;DHT22;46552;52.150;8.428;2023-11-19T08:09:05;11.70;99.90
4435;DHT22;46552;52.150;8.428;2023-11-19T08:11:34;11.70;99.90
4435;DHT22;46552;52.150;8.428;2023-11-19T08:14:01;11.70;99.90
4435;DHT22;46552;52.150;8.428;2023-11-19T08:16:29;11.70;99.90
4435;DHT22;46552;52.150;8.428;2023-11-19T08:18:56;11.70;99.90
4435;DHT22;46552;52.150;8.428;2023-11-19T08:21:24;11.70;99.90
4435;DHT22;46552;52.150;8.428;2023-11-19T08:23:52;11.70;99.90
4435;DHT22;46552;52.150;8.428;2023-11-19T08:26:20;11.70;99.90
4435;DHT22;46552;52.150;8.428;2023-11-19T08:28:48;11.70;99.90
4435;DHT22;46552;52.150;8.428;2023-11-19T08:31:15;11.70;99.90
4435;DHT22;46552;52.150;8.428;2023-11-19T08:33:42;11.80;99.90
4435;DHT22;46552;52.150;8.428;2023-11-19T08:36:15;11.70;99.90
4435;DHT22;46552;52.150;8.428;2023-11-19T08:38:43;11.80;99.90
4435;DHT22;46552;52.150;8.428;2023-11-19T08:41:10;11.80;99.90
4435;DHT22;46552;52.150;8.428;2023-11-19T08:43:39;11.80;99.90
4435;DHT22;46552;52.150;8.428;2023-11-19T08:46:11;11.70;99.90
4435;DHT22;46552;52.150;8.428;2023-11-19T08:48:38;11.80;99.90
4435;DHT22;46552;52.150;8.428;2023-11-19T08:51:06;11.70;99.90
4435;DHT22;46552;52.150;8.428;2023-11-19T08:53:33;11.70;99.90
4435;DHT22;46552;52.150;8.428;2023-11-19T08:56:01;11.70;99.90
4435;DHT22;46552;52.150;8.428;2023-11-19T08:58:28;11.80;99.90
4435;DHT22;46552;52.150;8.428;2023-11-19T09:00:56;11.70;99.90
4435;DHT22;46552;52.150;8.428;2023-11-19T09:03:25;11.70;99.90
4435;DHT22;46552;52.150;8.428;2023-11-19T09:05:52;11.70;99.90
4435;DHT22;46552;52.150;8.428;2023-11-19T09:08:20;11.70;99.90
4435;DHT22;46552;52.150;8.428;2023-11-19T09:10:47;11.70;99.90
4435;DHT22;46552;52.150;8.428;2023-11-19T09:13:15;11.70;99.90
4435;DHT22;46552;52.150;8.428;2023-11-19T09:15:42;11.70;99.90
4435;DHT22;46552;52.150;8.428;2023-11-19T09:18:09;11.70;99.90
4435;DHT22;46552;52.150;8.428;2023-11-19T09:20:39;11.80;99.90
4435;DHT22;46552;52.150;8.428;2023-11-19T09:23:06;11.80;99.90
4435;DHT22;46552;52.150;8.428;2023-11-19T09:25:34;11.80;99.90
4435;DHT22;46552;52.150;8.428;2023-11-19T09:28:02;11.90;99.90
4435;DHT22;46552;52.150;8.428;2023-11-19T09:30:29;11.90;99.90
4435;DHT22;46552;52.150;8.428;2023-11-19T09:32:59;11.90;99.90
4435;DHT22;46552;52.150;8.428;2023-11-19T09:35:26;11.80;99.90
4435;DHT22;46552;52.150;8.428;2023-11-19T09:37:55;11.70;99.90
4435;DHT22;46552;52.150;8.428;2023-11-19T09:40:22;11.80;99.90
4435;DHT22;46552;52.150;8.428;2023-11-19T09:42:49;11.80;99.90
4435;DHT22;46552;52.150;8.428;2023-11-19T09:45:17;11.70;99.90
4435;DHT22;46552;52.150;8.428;2023-11-19T09:47:45;11.70;99.90
4435;DHT22;46552;52.150;8.428;2023-11-19T09:50:17;11.80;99.90
4435;DHT22;46552;52.150;8.428;2023-11-19T09:52:44;11.80;99.90
4435;DHT22;46552;52.150;8.428;2023-11-19T09:55:14;11.80;99.90
4435;DHT22;46552;52.150;8.428;2023-11-19T09:57:42;11.80;99.90
4435;DHT22;46552;52.150;8.428;2023-11-19T10:00:11;11.70;99.90
4435;DHT22;46552;52.150;8.428;2023-11-19T10:02:41;11.80;99.90
4435;DHT22;46552;52.150;8.428;2023-11-19T10:05:12;11.80;99.90
4435;DHT22;46552;52.150;8.428;2023-11-19T10:07:40;11.90;99.90
4435;DHT22;46552;52.150;8.428;2023-11-19T10:10:08;11.90;99.90
4435;DHT22;46552;52.150;8.428;2023-11-19T10:12:41;12.00;99.90
4435;DHT22;46552;52.150;8.428;2023-11-19T10:15:20;12.10;99.90
4435;DHT22;46552;52.150;8.428;2023-11-19T10:17:49;12.20;99.90
4435;DHT22;46552;52.150;8.428;2023-11-19T10:20:17;12.20;99.90
4435;DHT22;46552;52.150;8.428;2023-11-19T10:22:44;12.20;99.90
4435;DHT22;46552;52.150;8.428;2023-11-19T10:25:22;12.20;99.90
4435;DHT22;46552;52.150;8.428;2023-11-19T10:27:52;12.30;99.90
4435;DHT22;46552;52.150;8.428;2023-11-19T10:30:21;12.50;99.90
4435;DHT22;46552;52.150;8.428;2023-11-19T10:33:03;13.10;99.90
4435;DHT22;46552;52.150;8.428;2023-11-19T10:35:31;13.40;99.90
4435;DHT22;46552;52.150;8.428;2023-11-19T10:38:00;13.50;99.90
4435;DHT22;46552;52.150;8.428;2023-11-19T10:40:39;13.50;99.90
4435;DHT22;46552;52.150;8.428;2023-11-19T10:43:09;13.30;99.90
4435;DHT22;46552;52.150;8.428;2023-11-19T10:45:37;13.10;99.90
4435;DHT22;46552;52.150;8.428;2023-11-19T10:48:05;13.00;99.90
4435;DHT22;46552;52.150;8.428;2023-11-19T10:50:33;12.90;99.90
4435;DHT22;46552;52.150;8.428;2023-11-19T10:53:01;12.80;99.90
4435;DHT22;46552;52.150;8.428;2023-11-19T10:55:29;12.70;99.90
4435;DHT22;46552;52.150;8.428;2023-11-19T10:57:59;12.70;99.90
4435;DHT22;46552;52.150;8.428;2023-11-19T11:00:30;12.60;99.90
4435;DHT22;46552;52.150;8.428;2023-11-19T11:03:02;12.50;99.90
4435;DHT22;46552;52.150;8.428;2023-11-19T11:05:32;12.50;99.90
4435;DHT22;46552;52.150;8.428;2023-11-19T11:08:01;12.50;99.90
4435;DHT22;46552;52.150;8.428;2023-11-19T11:10:32;12.50;99.90
4435;DHT22;46552;52.150;8.428;2023-11-19T11:13:03;12.50;99.90
4435;DHT22;46552;52.150;8.428;2023-11-19T11:15:31;12.50;99.90
4435;DHT22;46552;52.150;8.428;2023-11-19T11:18:00;12.40;99.90
4435;DHT22;46552;52.150;8.428;2023-11-19T11:20:30;12.40;99.90
4435;DHT22;46552;52.150;8.428;2023-11-19T11:26:20;12.40;99.90
4435;DHT22;46552;52.150;8.428;2023-11-19T11:28:57;12.30;99.90
4435;DHT22;46552;52.150;8.428;2023-11-19T11:31:34;12.30;99.90
4435;DHT22;46552;52.150;8.428;2023-11-19T11:34:31;12.30;99.90
4435;DHT22;46552;52.150;8.428;2023-11-19T11:37:09;12.30;99.90
4435;DHT22;46552;52.150;8.428;2023-11-19T11:39:40;12.30;99.90
4435;DHT22;46552;52.150;8.428;2023-11-19T11:42:35;12.20;99.90
4435;DHT22;46552;52.150;8.428;2023-11-19T11:45:05;12.40;99.90
4435;DHT22;46552;52.150;8.428;2023-11-19T11:48:13;12.40;99.90
4435;DHT22;46552;52.150;8.428;2023-11-19T11:50:53;12.40;99.90
4435;DHT22;46552;52.150;8.428;2023-11-19T11:53:22;12.50;99.90
4435;DHT22;46552;52.150;8.428;2023-11-19T11:55:57;12.50;99.90
4435;DHT22;46552;52.150;8.428;2023-11-19T11:58:36;12.50;99.90
4435;DHT22;46552;52.150;8.428;2023-11-19T12:01:05;12.60;99.90
4435;DHT22;46552;52.150;8.428;2023-11-19T12:03:37;12.70;99.90
4435;DHT22;46552;52.150;8.428;2023-11-19T12:06:05;12.80;99.90
4435;DHT22;46552;52.150;8.428;2023-11-19T12:08:35;13.00;99.90
4435;DHT22;46552;52.150;8.428;2023-11-19T12:11:02;13.10;99.90
4435;DHT22;46552;52.150;8.428;2023-11-19T12:13:46;13.20;99.90
4435;DHT22;46552;52.150;8.428;2023-11-19T12:16:14;13.30;99.90
4435;DHT22;46552;52.150;8.428;2023-11-19T12:18:43;13.30;99.90
4435;DHT22;46552;52.150;8.428;2023-11-19T12:21:10;13.20;99.90
4435;DHT22;46552;52.150;8.428;2023-11-19T12:23:45;13.10;99.90
4435;DHT22;46552;52.150;8.428;2023-11-19T12:26:36;12.90;99.90
4435;DHT22;46552;52.150;8.428;2023-11-19T12:29:05;12.80;99.90
4435;DHT22;46552;52.150;8.428;2023-11-19T12:31:33;12.80;99.90
4435;DHT22;46552;52.150;8.428;2023-11-19T12:34:10;12.70;99.90
4435;DHT22;46552;52.150;8.428;2023-11-19T12:36:42;12.60;99.90
4435;DHT22;46552;52.150;8.428;2023-11-19T12:39:10;12.60;99.90
4435;DHT22;46552;52.150;8.428;2023-11-19T12:41:53;12.50;99.90
4435;DHT22;46552;52.150;8.428;2023-11-19T12:44:21;12.50;99.90
4435;DHT22;46552;52.150;8.428;2023-11-19T12:47:00;12.40;99.90
4435;DHT22;46552;52.150;8.428;2023-11-19T12:49:28;12.40;99.90
4435;DHT22;46552;52.150;8.428;2023-11-19T12:51:56;12.30;99.90
4435;DHT22;46552;52.150;8.428;2023-11-19T12:54:32;12.30;99.90
4435;DHT22;46552;52.150;8.428;2023-11-19T12:57:00;12.30;99.90
4435;DHT22;46552;52.150;8.428;2023-11-19T12:59:27;12.40;99.90
4435;DHT22;46552;52.150;8.428;2023-11-19T13:01:55;12.30;99.90
4435;DHT22;46552;52.150;8.428;2023-11-19T13:04:22;12.40;99.90
4435;DHT22;46552;52.150;8.428;2023-11-19T13:06:51;12.50;99.90
4435;DHT22;46552;52.150;8.428;2023-11-19T13:09:25;12.50;99.90
4435;DHT22;46552;52.150;8.428;2023-11-19T13:11:53;12.60;99.90
4435;DHT22;46552;52.150;8.428;2023-11-19T13:14:21;12.70;99.90
4435;DHT22;46552;52.150;8.428;2023-11-19T13:16:49;12.70;99.90
4435;DHT22;46552;52.150;8.428;2023-11-19T13:19:16;12.80;99.90
4435;DHT22;46552;52.150;8.428;2023-11-19T13:21:45;12.80;99.90
4435;DHT22;46552;52.150;8.428;2023-11-19T13:24:15;12.80;99.90
4435;DHT22;46552;52.150;8.428;2023-11-19T13:26:42;12.70;99.90
4435;DHT22;46552;52.150;8.428;2023-11-19T13:29:09;12.70;99.90
4435;DHT22;46552;52.150;8.428;2023-11-19T13:31:37;12.70;99.90
4435;DHT22;46552;52.150;8.428;2023-11-19T13:34:04;12.60;99.90
4435;DHT22;46552;52.150;8.428;2023-11-19T13:36:33;12.60;99.90
4435;DHT22;46552;52.150;8.428;2023-11-19T13:39:01;12.60;99.90
4435;DHT22;46552;52.150;8.428;2023-11-19T13:41:29;12.70;99.90
4435;DHT22;46552;52.150;8.428;2023-11-19T13:43:57;12.70;99.90
4435;DHT22;46552;52.150;8.428;2023-11-19T13:46:24;12.70;99.90
4435;DHT22;46552;52.150;8.428;2023-11-19T13:48:51;12.80;99.90
4435;DHT22;46552;52.150;8.428;2023-11-19T13:51:18;12.80;99.90
4435;DHT22;46552;52.150;8.428;2023-11-19T13:53:46;12.80;99.90
4435;DHT22;46552;52.150;8.428;2023-11-19T13:56:14;12.90;99.90
4435;DHT22;46552;52.150;8.428;2023-11-19T13:58:43;13.00;99.90
4435;DHT22;46552;52.150;8.428;2023-11-19T14:01:10;13.00;99.90
4435;DHT22;46552;52.150;8.428;2023-11-19T14:03:38;13.00;99.90
4435;DHT22;46552;52.150;8.428;2023-11-19T14:06:06;12.90;99.90
4435;DHT22;46552;52.150;8.428;2023-11-19T14:08:33;12.90;99.90
4435;DHT22;46552;52.150;8.428;2023-11-19T14:11:00;12.90;99.90
4435;DHT22;46552;52.150;8.428;2023-11-19T14:13:28;12.80;99.90
4435;DHT22;46552;52.150;8.428;2023-11-19T14:15:56;12.90;99.90
4435;DHT22;46552;52.150;8.428;2023-11-19T14:18:23;12.80;99.90
4435;DHT22;46552;52.150;8.428;2023-11-19T14:20:50;12.80;99.90
4435;DHT22;46552;52.150;8.428;2023-11-19T14:23:18;12.70;99.90
4435;DHT22;46552;52.150;8.428;2023-11-19T14:25:45;12.80;99.90
4435;DHT22;46552;52.150;8.428;2023-11-19T14:28:12;12.70;99.90
4435;DHT22;46552;52.150;8.428;2023-11-19T14:30:40;12.70;99.90
4435;DHT22;46552;52.150;8.428;2023-11-19T14:33:09;12.70;99.90
4435;DHT22;46552;52.150;8.428;2023-11-19T14:35:36;12.70;99.90
4435;DHT22;46552;52.150;8.428;2023-11-19T14:38:04;12.70;99.90
4435;DHT22;46552;52.150;8.428;2023-11-19T14:40:35;12.60;99.90
4435;DHT22;46552;52.150;8.428;2023-11-19T14:43:02;12.60;99.90
4435;DHT22;46552;52.150;8.428;2023-11-19T14:45:29;12.50;99.90
4435;DHT22;46552;52.150;8.428;2023-11-19T14:47:56;12.50;99.90
4435;DHT22;46552;52.150;8.428;2023-11-19T14:50:25;12.50;99.90
4435;DHT22;46552;52.150;8.428;2023-11-19T14:52:52;12.40;99.90
4435;DHT22;46552;52.150;8.428;2023-11-19T14:55:20;12.40;99.90
4435;DHT22;46552;52.150;8.428;2023-11-19T14:57:47;12.40;99.90
4435;DHT22;46552;52.150;8.428;2023-11-19T15:00:17;12.40;99.90
4435;DHT22;46552;52.150;8.428;2023-11-19T15:02:45;12.30;99.90
4435;DHT22;46552;52.150;8.428;2023-11-19T15:05:12;12.30;99.90
4435;DHT22;46552;52.150;8.428;2023-11-19T15:07:40;12.30;99.90
4435;DHT22;46552;52.150;8.428;2023-11-19T15:10:08;12.20;99.90
4435;DHT22;46552;52.150;8.428;2023-11-19T15:12:36;12.20;99.90
4435;DHT22;46552;52.150;8.428;2023-11-19T15:15:07;12.10;99.90
4435;DHT22;46552;52.150;8.428;2023-11-19T15:17:38;12.10;99.90
4435;DHT22;46552;52.150;8.428;2023-11-19T15:20:07;12.10;99.90
4435;DHT22;46552;52.150;8.428;2023-11-19T15:22:34;12.10;99.90
4435;DHT22;46552;52.150;8.428;2023-11-19T15:25:04;12.10;99.90
4435;DHT22;46552;52.150;8.428;2023-11-19T15:27:35;12.00;99.90
4435;DHT22;46552;52.150;8.428;2023-11-19T15:30:03;12.00;99.90
4435;DHT22;46552;52.150;8.428;2023-11-19T15:32:30;12.00;99.90
4435;DHT22;46552;52.150;8.428;2023-11-19T15:34:59;12.00;99.90
4435;DHT22;46552;52.150;8.428;2023-11-19T15:37:27;12.00;99.90
4435;DHT22;46552;52.150;8.428;2023-11-19T15:39:55;12.00;99.90
4435;DHT22;46552;52.150;8.428;2023-11-19T15:42:24;12.00;99.90
4435;DHT22;46552;52.150;8.428;2023-11-19T15:44:51;12.00;99.90
4435;DHT22;46552;52.150;8.428;2023-11-19T15:47:19;12.00;99.90
4435;DHT22;46552;52.150;8.428;2023-11-19T15:49:47;12.00;99.90
4435;DHT22;46552;52.150;8.428;2023-11-19T15:52:14;12.00;99.90
4435;DHT22;46552;52.150;8.428;2023-11-19T15:54:41;12.10;99.90
4435;DHT22;46552;52.150;8.428;2023-11-19T15:57:10;12.00;99.90
4435;DHT22;46552;52.150;8.428;2023-11-19T15:59:40;12.00;99.90
4435;DHT22;46552;52.150;8.428;2023-11-19T16:02:07;12.10;99.90